sensor_id;sensor_type;location;lat;lon;timestamp;temperature;humidity
16140;DHT22;8175;49.326;12.690;2022-10-28T00:02:14;10.00;99.90
16140;DHT22;8175;49.326;12.690;2022-10-28T00:04:39;10.10;99.90
16140;DHT22;8175;49.326;12.690;2022-10-28T00:07:05;10.00;99.90
16140;DHT22;8175;49.326;12.690;2022-10-28T00:09:31;9.90;99.90
16140;DHT22;8175;49.326;12.690;2022-10-28T00:11:56;10.00;99.90
16140;DHT22;8175;49.326;12.690;2022-10-28T00:14:22;10.10;99.90
16140;DHT22;8175;49.326;12.690;2022-10-28T00:16:48;10.10;99.90
16140;DHT22;8175;49.326;12.690;2022-10-28T00:19:13;10.20;99.90
16140;DHT22;8175;49.326;12.690;2022-10-28T00:21:41;10.20;99.90
16140;DHT22;8175;49.326;12.690;2022-10-28T00:24:08;10.20;99.90
16140;DHT22;8175;49.326;12.690;2022-10-28T00:26:35;10.30;99.90
16140;DHT22;8175;49.326;12.690;2022-10-28T00:29:07;10.50;99.90
16140;DHT22;8175;49.326;12.690;2022-10-28T00:31:34;10.80;99.90
16140;DHT22;8175;49.326;12.690;2022-10-28T00:34:02;11.10;99.90
16140;DHT22;8175;49.326;12.690;2022-10-28T00:36:30;11.00;99.90
16140;DHT22;8175;49.326;12.690;2022-10-28T00:38:57;10.80;99.90
16140;DHT22;8175;49.326;12.690;2022-10-28T00:43:58;10.50;99.90
16140;DHT22;8175;49.326;12.690;2022-10-28T00:49:16;10.40;99.90
16140;DHT22;8175;49.326;12.690;2022-10-28T00:51:45;10.60;99.90
16140;DHT22;8175;49.326;12.690;2022-10-28T00:54:11;10.70;99.90
16140;DHT22;8175;49.326;12.690;2022-10-28T00:56:41;10.80;99.90
16140;DHT22;8175;49.326;12.690;2022-10-28T00:59:15;10.90;99.90
16140;DHT22;8175;49.326;12.690;2022-10-28T01:01:42;10.90;99.90
16140;DHT22;8175;49.326;12.690;2022-10-28T01:04:08;10.90;99.90
16140;DHT22;8175;49.326;12.690;2022-10-28T01:06:33;10.80;99.90
16140;DHT22;8175;49.326;12.690;2022-10-28T01:08:59;10.80;99.90
16140;DHT22;8175;49.326;12.690;2022-10-28T01:30:18;10.80;99.90
16140;DHT22;8175;49.326;12.690;2022-10-28T01:35:32;10.80;99.90
16140;DHT22;8175;49.326;12.690;2022-10-28T01:38:20;10.80;99.90
16140;DHT22;8175;49.326;12.690;2022-10-28T01:40:56;10.70;99.90
16140;DHT22;8175;49.326;12.690;2022-10-28T01:46:15;10.80;99.90
16140;DHT22;8175;49.326;12.690;2022-10-28T01:49:01;10.70;99.90
16140;DHT22;8175;49.326;12.690;2022-10-28T01:51:52;10.80;99.90
16140;DHT22;8175;49.326;12.690;2022-10-28T01:54:22;10.80;99.90
16140;DHT22;8175;49.326;12.690;2022-10-28T01:56:50;10.70;99.90
16140;DHT22;8175;49.326;12.690;2022-10-28T01:59:22;10.70;99.90
16140;DHT22;8175;49.326;12.690;2022-10-28T02:01:49;10.60;99.90
16140;DHT22;8175;49.326;12.690;2022-10-28T02:04:15;10.60;99.90
16140;DHT22;8175;49.326;12.690;2022-10-28T02:06:43;10.50;99.90
16140;DHT22;8175;49.326;12.690;2022-10-28T02:12:10;10.30;99.90
16140;DHT22;8175;49.326;12.690;2022-10-28T02:17:26;10.10;99.90
16140;DHT22;8175;49.326;12.690;2022-10-28T02:20:08;10.20;99.90
16140;DHT22;8175;49.326;12.690;2022-10-28T02:22:49;10.10;99.90
16140;DHT22;8175;49.326;12.690;2022-10-28T02:25:27;10.00;99.90
16140;DHT22;8175;49.326;12.690;2022-10-28T02:28:09;9.90;99.90
16140;DHT22;8175;49.326;12.690;2022-10-28T02:30:47;9.70;99.90
16140;DHT22;8175;49.326;12.690;2022-10-28T02:33:20;9.60;99.90
16140;DHT22;8175;49.326;12.690;2022-10-28T02:35:53;9.60;99.90
16140;DHT22;8175;49.326;12.690;2022-10-28T02:38:33;9.50;99.90
16140;DHT22;8175;49.326;12.690;2022-10-28T02:41:03;9.50;99.90
16140;DHT22;8175;49.326;12.690;2022-10-28T02:43:34;9.50;99.90
16140;DHT22;8175;49.326;12.690;2022-10-28T02:46:02;9.40;99.90
16140;DHT22;8175;49.326;12.690;2022-10-28T02:51:11;9.50;99.90
16140;DHT22;8175;49.326;12.690;2022-10-28T02:53:53;9.60;99.90
16140;DHT22;8175;49.326;12.690;2022-10-28T02:56:20;9.70;99.90
16140;DHT22;8175;49.326;12.690;2022-10-28T02:58:47;9.50;99.90
16140;DHT22;8175;49.326;12.690;2022-10-28T03:01:13;9.50;99.90
16140;DHT22;8175;49.326;12.690;2022-10-28T03:03:39;9.40;99.90
16140;DHT22;8175;49.326;12.690;2022-10-28T03:06:06;9.50;99.90
16140;DHT22;8175;49.326;12.690;2022-10-28T03:08:31;9.50;99.90
16140;DHT22;8175;49.326;12.690;2022-10-28T03:10:57;9.60;99.90
16140;DHT22;8175;49.326;12.690;2022-10-28T03:13:23;9.70;99.90
16140;DHT22;8175;49.326;12.690;2022-10-28T03:15:48;9.80;99.90
16140;DHT22;8175;49.326;12.690;2022-10-28T03:18:14;9.80;99.90
16140;DHT22;8175;49.326;12.690;2022-10-28T03:20:39;9.90;99.90
16140;DHT22;8175;49.326;12.690;2022-10-28T03:23:05;9.90;99.90
16140;DHT22;8175;49.326;12.690;2022-10-28T03:25:31;9.80;99.90
16140;DHT22;8175;49.326;12.690;2022-10-28T03:27:56;10.20;99.90
16140;DHT22;8175;49.326;12.690;2022-10-28T03:30:22;10.40;99.90
16140;DHT22;8175;49.326;12.690;2022-10-28T03:32:47;10.50;99.90
16140;DHT22;8175;49.326;12.690;2022-10-28T03:35:13;10.40;99.90
16140;DHT22;8175;49.326;12.690;2022-10-28T03:37:42;10.30;99.90
16140;DHT22;8175;49.326;12.690;2022-10-28T03:40:09;10.20;99.90
16140;DHT22;8175;49.326;12.690;2022-10-28T03:42:35;10.20;99.90
16140;DHT22;8175;49.326;12.690;2022-10-28T03:45:00;10.30;99.90
16140;DHT22;8175;49.326;12.690;2022-10-28T03:47:26;10.40;99.90
16140;DHT22;8175;49.326;12.690;2022-10-28T03:49:52;10.40;99.90
16140;DHT22;8175;49.326;12.690;2022-10-28T03:52:18;10.50;99.90
16140;DHT22;8175;49.326;12.690;2022-10-28T03:54:43;10.50;99.90
16140;DHT22;8175;49.326;12.690;2022-10-28T03:57:09;10.60;99.90
16140;DHT22;8175;49.326;12.690;2022-10-28T03:59:35;10.60;99.90
16140;DHT22;8175;49.326;12.690;2022-10-28T04:02:00;10.50;99.90
16140;DHT22;8175;49.326;12.690;2022-10-28T04:04:26;10.50;99.90
16140;DHT22;8175;49.326;12.690;2022-10-28T04:06:52;10.50;99.90
16140;DHT22;8175;49.326;12.690;2022-10-28T04:09:17;10.60;99.90
16140;DHT22;8175;49.326;12.690;2022-10-28T04:11:46;10.60;99.90
16140;DHT22;8175;49.326;12.690;2022-10-28T04:14:12;10.60;99.90
16140;DHT22;8175;49.326;12.690;2022-10-28T04:16:37;10.60;99.90
16140;DHT22;8175;49.326;12.690;2022-10-28T04:19:03;10.70;99.90
16140;DHT22;8175;49.326;12.690;2022-10-28T04:21:28;10.70;99.90
16140;DHT22;8175;49.326;12.690;2022-10-28T04:23:54;10.60;99.90
16140;DHT22;8175;49.326;12.690;2022-10-28T04:26:20;10.70;99.90
16140;DHT22;8175;49.326;12.690;2022-10-28T04:28:45;10.80;99.90
16140;DHT22;8175;49.326;12.690;2022-10-28T04:31:11;10.80;99.90
16140;DHT22;8175;49.326;12.690;2022-10-28T04:33:37;10.90;99.90
16140;DHT22;8175;49.326;12.690;2022-10-28T04:36:02;10.90;99.90
16140;DHT22;8175;49.326;12.690;2022-10-28T04:38:28;10.90;99.90
16140;DHT22;8175;49.326;12.690;2022-10-28T04:40:54;11.00;99.90
16140;DHT22;8175;49.326;12.690;2022-10-28T04:43:20;11.00;99.90
16140;DHT22;8175;49.326;12.690;2022-10-28T04:45:45;11.00;99.90
16140;DHT22;8175;49.326;12.690;2022-10-28T04:48:11;11.00;99.90
16140;DHT22;8175;49.326;12.690;2022-10-28T04:50:37;11.10;99.90
16140;DHT22;8175;49.326;12.690;2022-10-28T04:53:03;11.20;99.90
16140;DHT22;8175;49.326;12.690;2022-10-28T04:55:29;11.20;99.90
16140;DHT22;8175;49.326;12.690;2022-10-28T04:57:56;11.30;99.90
16140;DHT22;8175;49.326;12.690;2022-10-28T05:00:23;11.30;99.90
16140;DHT22;8175;49.326;12.690;2022-10-28T05:02:49;11.30;99.90
16140;DHT22;8175;49.326;12.690;2022-10-28T05:05:16;11.30;99.90
16140;DHT22;8175;49.326;12.690;2022-10-28T05:07:41;11.30;99.90
16140;DHT22;8175;49.326;12.690;2022-10-28T05:10:07;11.20;99.90
16140;DHT22;8175;49.326;12.690;2022-10-28T05:12:33;11.10;99.90
16140;DHT22;8175;49.326;12.690;2022-10-28T05:14:59;11.20;99.90
16140;DHT22;8175;49.326;12.690;2022-10-28T05:17:24;11.20;99.90
16140;DHT22;8175;49.326;12.690;2022-10-28T05:19:50;11.10;99.90
16140;DHT22;8175;49.326;12.690;2022-10-28T05:22:16;11.10;99.90
16140;DHT22;8175;49.326;12.690;2022-10-28T05:24:41;11.10;99.90
16140;DHT22;8175;49.326;12.690;2022-10-28T05:27:07;11.20;99.90
16140;DHT22;8175;49.326;12.690;2022-10-28T05:29:32;11.20;99.90
16140;DHT22;8175;49.326;12.690;2022-10-28T05:31:59;11.10;99.90
16140;DHT22;8175;49.326;12.690;2022-10-28T05:34:24;11.00;99.90
16140;DHT22;8175;49.326;12.690;2022-10-28T05:36:50;11.00;99.90
16140;DHT22;8175;49.326;12.690;2022-10-28T05:39:16;11.00;99.90
16140;DHT22;8175;49.326;12.690;2022-10-28T05:41:42;11.00;99.90
16140;DHT22;8175;49.326;12.690;2022-10-28T05:44:08;10.90;99.90
16140;DHT22;8175;49.326;12.690;2022-10-28T05:46:34;10.90;99.90
16140;DHT22;8175;49.326;12.690;2022-10-28T05:48:59;10.90;99.90
16140;DHT22;8175;49.326;12.690;2022-10-28T05:51:25;10.90;99.90
16140;DHT22;8175;49.326;12.690;2022-10-28T05:53:51;10.90;99.90
16140;DHT22;8175;49.326;12.690;2022-10-28T05:56:17;10.80;99.90
16140;DHT22;8175;49.326;12.690;2022-10-28T05:58:42;10.80;99.90
16140;DHT22;8175;49.326;12.690;2022-10-28T06:01:08;10.70;99.90
16140;DHT22;8175;49.326;12.690;2022-10-28T06:03:34;10.60;99.90
16140;DHT22;8175;49.326;12.690;2022-10-28T06:05:59;10.70;99.90
16140;DHT22;8175;49.326;12.690;2022-10-28T06:08:25;10.70;99.90
16140;DHT22;8175;49.326;12.690;2022-10-28T06:10:53;10.80;99.90
16140;DHT22;8175;49.326;12.690;2022-10-28T06:13:19;10.80;99.90
16140;DHT22;8175;49.326;12.690;2022-10-28T06:15:50;10.90;99.90
16140;DHT22;8175;49.326;12.690;2022-10-28T06:18:16;10.90;99.90
16140;DHT22;8175;49.326;12.690;2022-10-28T06:20:41;10.90;99.90
16140;DHT22;8175;49.326;12.690;2022-10-28T06:23:07;10.90;99.90
16140;DHT22;8175;49.326;12.690;2022-10-28T06:25:33;10.90;99.90
16140;DHT22;8175;49.326;12.690;2022-10-28T06:27:59;10.90;99.90
16140;DHT22;8175;49.326;12.690;2022-10-28T06:30:27;10.90;99.90
16140;DHT22;8175;49.326;12.690;2022-10-28T06:32:56;10.90;99.90
16140;DHT22;8175;49.326;12.690;2022-10-28T06:35:22;11.00;99.90
16140;DHT22;8175;49.326;12.690;2022-10-28T06:37:51;11.10;99.90
16140;DHT22;8175;49.326;12.690;2022-10-28T06:40:17;11.40;99.90
16140;DHT22;8175;49.326;12.690;2022-10-28T06:42:44;11.50;99.90
16140;DHT22;8175;49.326;12.690;2022-10-28T06:45:10;11.50;99.90
16140;DHT22;8175;49.326;12.690;2022-10-28T06:47:35;11.60;99.90
16140;DHT22;8175;49.326;12.690;2022-10-28T06:50:01;11.60;99.90
16140;DHT22;8175;49.326;12.690;2022-10-28T06:52:26;11.70;99.90
16140;DHT22;8175;49.326;12.690;2022-10-28T06:54:53;11.80;99.90
16140;DHT22;8175;49.326;12.690;2022-10-28T06:57:18;11.90;99.90
16140;DHT22;8175;49.326;12.690;2022-10-28T06:59:44;12.00;99.90
16140;DHT22;8175;49.326;12.690;2022-10-28T07:02:10;12.10;99.90
16140;DHT22;8175;49.326;12.690;2022-10-28T07:04:36;12.20;99.90
16140;DHT22;8175;49.326;12.690;2022-10-28T07:07:02;12.40;99.90
16140;DHT22;8175;49.326;12.690;2022-10-28T07:09:28;12.60;99.90
16140;DHT22;8175;49.326;12.690;2022-10-28T07:11:53;12.60;99.90
16140;DHT22;8175;49.326;12.690;2022-10-28T07:14:19;12.60;99.90
16140;DHT22;8175;49.326;12.690;2022-10-28T07:16:45;12.70;99.90
16140;DHT22;8175;49.326;12.690;2022-10-28T07:19:10;12.70;99.90
16140;DHT22;8175;49.326;12.690;2022-10-28T07:21:36;12.80;99.90
16140;DHT22;8175;49.326;12.690;2022-10-28T07:24:02;13.00;99.90
16140;DHT22;8175;49.326;12.690;2022-10-28T07:26:27;13.10;99.90
16140;DHT22;8175;49.326;12.690;2022-10-28T07:28:53;13.20;99.90
16140;DHT22;8175;49.326;12.690;2022-10-28T07:31:19;13.30;99.90
16140;DHT22;8175;49.326;12.690;2022-10-28T07:33:44;13.50;99.90
16140;DHT22;8175;49.326;12.690;2022-10-28T07:36:16;13.60;99.90
16140;DHT22;8175;49.326;12.690;2022-10-28T07:38:41;13.60;99.90
16140;DHT22;8175;49.326;12.690;2022-10-28T07:41:08;13.70;99.90
16140;DHT22;8175;49.326;12.690;2022-10-28T07:43:36;13.70;99.90
16140;DHT22;8175;49.326;12.690;2022-10-28T07:46:02;13.60;99.90
16140;DHT22;8175;49.326;12.690;2022-10-28T07:48:28;13.60;99.90
16140;DHT22;8175;49.326;12.690;2022-10-28T07:50:53;13.60;99.90
16140;DHT22;8175;49.326;12.690;2022-10-28T07:53:19;13.60;99.90
16140;DHT22;8175;49.326;12.690;2022-10-28T07:55:44;13.70;99.90
16140;DHT22;8175;49.326;12.690;2022-10-28T07:58:18;13.80;99.90
16140;DHT22;8175;49.326;12.690;2022-10-28T08:00:43;14.10;99.90
16140;DHT22;8175;49.326;12.690;2022-10-28T08:03:09;14.20;99.90
16140;DHT22;8175;49.326;12.690;2022-10-28T08:05:35;14.10;99.90
16140;DHT22;8175;49.326;12.690;2022-10-28T08:08:00;14.10;99.90
16140;DHT22;8175;49.326;12.690;2022-10-28T08:10:26;14.30;99.90
16140;DHT22;8175;49.326;12.690;2022-10-28T08:12:52;14.50;99.90
16140;DHT22;8175;49.326;12.690;2022-10-28T08:15:19;14.70;99.90
16140;DHT22;8175;49.326;12.690;2022-10-28T08:17:52;14.80;99.90
16140;DHT22;8175;49.326;12.690;2022-10-28T08:20:18;15.20;99.90
16140;DHT22;8175;49.326;12.690;2022-10-28T08:22:43;15.50;99.90
16140;DHT22;8175;49.326;12.690;2022-10-28T08:25:09;15.80;99.90
16140;DHT22;8175;49.326;12.690;2022-10-28T08:27:35;16.10;99.90
16140;DHT22;8175;49.326;12.690;2022-10-28T08:30:00;16.30;99.90
16140;DHT22;8175;49.326;12.690;2022-10-28T08:32:26;16.40;99.90
16140;DHT22;8175;49.326;12.690;2022-10-28T08:34:52;16.70;99.90
16140;DHT22;8175;49.326;12.690;2022-10-28T08:37:17;16.80;99.90
16140;DHT22;8175;49.326;12.690;2022-10-28T08:39:43;16.90;99.90
16140;DHT22;8175;49.326;12.690;2022-10-28T08:42:48;17.10;99.90
16140;DHT22;8175;49.326;12.690;2022-10-28T08:46:10;17.30;99.90
16140;DHT22;8175;49.326;12.690;2022-10-28T08:48:13;17.50;99.90
16140;DHT22;8175;49.326;12.690;2022-10-28T08:50:47;17.80;99.90
16140;DHT22;8175;49.326;12.690;2022-10-28T08:53:27;18.30;99.90
16140;DHT22;8175;49.326;12.690;2022-10-28T08:56:09;18.40;99.90
16140;DHT22;8175;49.326;12.690;2022-10-28T08:58:41;18.50;99.90
16140;DHT22;8175;49.326;12.690;2022-10-28T09:01:15;18.90;99.90
16140;DHT22;8175;49.326;12.690;2022-10-28T09:03:44;19.50;99.90
16140;DHT22;8175;49.326;12.690;2022-10-28T09:06:11;19.60;99.90
16140;DHT22;8175;49.326;12.690;2022-10-28T09:08:43;19.50;99.90
16140;DHT22;8175;49.326;12.690;2022-10-28T09:13:45;19.00;99.90
16140;DHT22;8175;49.326;12.690;2022-10-28T09:16:36;19.40;99.90
16140;DHT22;8175;49.326;12.690;2022-10-28T09:21:52;20.80;99.90
16140;DHT22;8175;49.326;12.690;2022-10-28T09:24:28;21.80;99.90
16140;DHT22;8175;49.326;12.690;2022-10-28T09:27:09;22.60;99.90
16140;DHT22;8175;49.326;12.690;2022-10-28T09:34:58;24.00;99.90
16140;DHT22;8175;49.326;12.690;2022-10-28T09:37:30;23.40;99.90
16140;DHT22;8175;49.326;12.690;2022-10-28T09:40:12;22.30;99.90
16140;DHT22;8175;49.326;12.690;2022-10-28T09:42:46;21.10;99.90
16140;DHT22;8175;49.326;12.690;2022-10-28T09:45:26;20.00;99.90
16140;DHT22;8175;49.326;12.690;2022-10-28T09:48:00;19.20;99.90
16140;DHT22;8175;49.326;12.690;2022-10-28T09:50:32;18.90;99.90
16140;DHT22;8175;49.326;12.690;2022-10-28T09:55:34;21.30;99.90
16140;DHT22;8175;49.326;12.690;2022-10-28T09:58:02;22.30;99.90
16140;DHT22;8175;49.326;12.690;2022-10-28T10:00:28;22.50;99.90
16140;DHT22;8175;49.326;12.690;2022-10-28T10:02:55;21.70;99.90
16140;DHT22;8175;49.326;12.690;2022-10-28T10:05:22;21.40;99.90
16140;DHT22;8175;49.326;12.690;2022-10-28T10:07:57;21.00;99.90
16140;DHT22;8175;49.326;12.690;2022-10-28T10:10:25;20.50;99.90
16140;DHT22;8175;49.326;12.690;2022-10-28T10:12:56;20.00;99.90
16140;DHT22;8175;49.326;12.690;2022-10-28T10:15:32;20.10;99.90
16140;DHT22;8175;49.326;12.690;2022-10-28T10:18:03;20.10;99.90
16140;DHT22;8175;49.326;12.690;2022-10-28T10:20:47;20.30;99.90
16140;DHT22;8175;49.326;12.690;2022-10-28T10:23:32;20.60;99.90
16140;DHT22;8175;49.326;12.690;2022-10-28T10:26:02;20.70;99.90
16140;DHT22;8175;49.326;12.690;2022-10-28T10:28:29;20.90;99.90
16140;DHT22;8175;49.326;12.690;2022-10-28T10:30:57;20.70;99.90
16140;DHT22;8175;49.326;12.690;2022-10-28T10:33:30;20.30;99.90
16140;DHT22;8175;49.326;12.690;2022-10-28T10:38:28;19.60;99.90
16140;DHT22;8175;49.326;12.690;2022-10-28T10:40:54;19.50;99.90
16140;DHT22;8175;49.326;12.690;2022-10-28T10:43:30;19.50;99.90
16140;DHT22;8175;49.326;12.690;2022-10-28T10:46:12;19.60;99.90
16140;DHT22;8175;49.326;12.690;2022-10-28T10:48:37;19.40;99.90
16140;DHT22;8175;49.326;12.690;2022-10-28T10:51:11;19.80;99.90
16140;DHT22;8175;49.326;12.690;2022-10-28T10:53:39;19.90;99.90
16140;DHT22;8175;49.326;12.690;2022-10-28T10:56:08;20.20;99.90
16140;DHT22;8175;49.326;12.690;2022-10-28T10:58:38;20.40;99.90
16140;DHT22;8175;49.326;12.690;2022-10-28T11:01:05;20.50;99.90
16140;DHT22;8175;49.326;12.690;2022-10-28T11:03:36;20.50;99.90
16140;DHT22;8175;49.326;12.690;2022-10-28T11:06:05;20.50;99.90
16140;DHT22;8175;49.326;12.690;2022-10-28T11:13:40;20.40;99.90
16140;DHT22;8175;49.326;12.690;2022-10-28T11:16:16;20.30;99.90
16140;DHT22;8175;49.326;12.690;2022-10-28T11:18:45;20.10;99.90
16140;DHT22;8175;49.326;12.690;2022-10-28T11:21:24;19.90;99.90
16140;DHT22;8175;49.326;12.690;2022-10-28T11:26:54;19.60;99.90
16140;DHT22;8175;49.326;12.690;2022-10-28T11:29:24;19.40;99.90
16140;DHT22;8175;49.326;12.690;2022-10-28T11:32:16;19.30;99.90
16140;DHT22;8175;49.326;12.690;2022-10-28T11:35:12;19.30;99.90
16140;DHT22;8175;49.326;12.690;2022-10-28T11:40:54;19.50;99.90
16140;DHT22;8175;49.326;12.690;2022-10-28T11:43:48;19.70;99.90
16140;DHT22;8175;49.326;12.690;2022-10-28T11:57:14;26.90;99.90
16140;DHT22;8175;49.326;12.690;2022-10-28T12:05:19;27.10;95.70
16140;DHT22;8175;49.326;12.690;2022-10-28T12:11:43;26.50;96.20
16140;DHT22;8175;49.326;12.690;2022-10-28T12:16:22;25.70;96.80
16140;DHT22;8175;49.326;12.690;2022-10-28T12:22:12;25.20;93.40
16140;DHT22;8175;49.326;12.690;2022-10-28T12:24:42;23.70;95.60
16140;DHT22;8175;49.326;12.690;2022-10-28T12:27:19;23.20;96.50
16140;DHT22;8175;49.326;12.690;2022-10-28T12:29:53;22.90;98.10
16140;DHT22;8175;49.326;12.690;2022-10-28T12:32:28;22.20;98.60
16140;DHT22;8175;49.326;12.690;2022-10-28T12:35:02;21.40;99.90
16140;DHT22;8175;49.326;12.690;2022-10-28T12:37:37;21.10;99.90
16140;DHT22;8175;49.326;12.690;2022-10-28T12:45:52;20.70;99.90
16140;DHT22;8175;49.326;12.690;2022-10-28T12:48:25;20.80;99.90
16140;DHT22;8175;49.326;12.690;2022-10-28T12:53:34;20.70;99.90
16140;DHT22;8175;49.326;12.690;2022-10-28T12:56:02;21.10;99.90
16140;DHT22;8175;49.326;12.690;2022-10-28T12:58:50;21.70;99.90
16140;DHT22;8175;49.326;12.690;2022-10-28T13:01:20;22.00;99.90
16140;DHT22;8175;49.326;12.690;2022-10-28T13:03:49;21.70;99.90
16140;DHT22;8175;49.326;12.690;2022-10-28T13:06:30;21.20;99.90
16140;DHT22;8175;49.326;12.690;2022-10-28T13:17:38;20.10;99.90
16140;DHT22;8175;49.326;12.690;2022-10-28T13:20:24;19.80;99.90
16140;DHT22;8175;49.326;12.690;2022-10-28T13:28:45;20.10;99.90
16140;DHT22;8175;49.326;12.690;2022-10-28T13:31:11;20.50;99.90
16140;DHT22;8175;49.326;12.690;2022-10-28T13:33:37;21.30;99.90
16140;DHT22;8175;49.326;12.690;2022-10-28T13:36:08;21.60;99.90
16140;DHT22;8175;49.326;12.690;2022-10-28T13:38:34;21.70;99.90
16140;DHT22;8175;49.326;12.690;2022-10-28T13:49:35;20.90;99.90
16140;DHT22;8175;49.326;12.690;2022-10-28T13:57:33;21.50;99.90
16140;DHT22;8175;49.326;12.690;2022-10-28T14:04:55;21.70;99.90
16140;DHT22;8175;49.326;12.690;2022-10-28T14:07:27;21.50;99.90
16140;DHT22;8175;49.326;12.690;2022-10-28T14:10:14;21.40;99.90
16140;DHT22;8175;49.326;12.690;2022-10-28T14:12:50;21.10;99.90
16140;DHT22;8175;49.326;12.690;2022-10-28T14:15:23;21.00;99.90
16140;DHT22;8175;49.326;12.690;2022-10-28T14:17:56;20.90;99.90
16140;DHT22;8175;49.326;12.690;2022-10-28T14:22:55;20.10;99.90
16140;DHT22;8175;49.326;12.690;2022-10-28T14:49:26;18.50;99.90
16140;DHT22;8175;49.326;12.690;2022-10-28T14:51:53;18.50;99.90
16140;DHT22;8175;49.326;12.690;2022-10-28T14:54:36;18.60;99.90
16140;DHT22;8175;49.326;12.690;2022-10-28T14:57:03;18.70;99.90
16140;DHT22;8175;49.326;12.690;2022-10-28T14:59:37;18.70;99.90
16140;DHT22;8175;49.326;12.690;2022-10-28T15:02:23;18.60;99.90
16140;DHT22;8175;49.326;12.690;2022-10-28T15:05:02;18.70;99.90
16140;DHT22;8175;49.326;12.690;2022-10-28T15:07:29;18.80;99.90
16140;DHT22;8175;49.326;12.690;2022-10-28T15:09:55;18.60;99.90
16140;DHT22;8175;49.326;12.690;2022-10-28T15:12:23;18.40;99.90
16140;DHT22;8175;49.326;12.690;2022-10-28T15:14:55;18.20;99.90
16140;DHT22;8175;49.326;12.690;2022-10-28T15:19:54;17.90;99.90
16140;DHT22;8175;49.326;12.690;2022-10-28T15:22:30;17.70;99.90
16140;DHT22;8175;49.326;12.690;2022-10-28T15:27:35;17.30;99.90
16140;DHT22;8175;49.326;12.690;2022-10-28T15:30:03;17.20;99.90
16140;DHT22;8175;49.326;12.690;2022-10-28T15:32:31;17.00;99.90
16140;DHT22;8175;49.326;12.690;2022-10-28T15:34:57;16.80;99.90
16140;DHT22;8175;49.326;12.690;2022-10-28T15:37:26;16.60;99.90
16140;DHT22;8175;49.326;12.690;2022-10-28T15:40:10;16.40;99.90
16140;DHT22;8175;49.326;12.690;2022-10-28T15:42:43;16.20;99.90
16140;DHT22;8175;49.326;12.690;2022-10-28T15:45:18;16.10;99.90
16140;DHT22;8175;49.326;12.690;2022-10-28T15:47:45;15.90;99.90
16140;DHT22;8175;49.326;12.690;2022-10-28T15:52:50;15.60;99.90
16140;DHT22;8175;49.326;12.690;2022-10-28T15:58:01;15.40;99.90
16140;DHT22;8175;49.326;12.690;2022-10-28T16:00:31;15.40;99.90
16140;DHT22;8175;49.326;12.690;2022-10-28T16:02:58;15.30;99.90
16140;DHT22;8175;49.326;12.690;2022-10-28T16:08:33;15.20;99.90
16140;DHT22;8175;49.326;12.690;2022-10-28T16:11:03;15.10;99.90
16140;DHT22;8175;49.326;12.690;2022-10-28T16:13:34;15.10;99.90
16140;DHT22;8175;49.326;12.690;2022-10-28T16:16:10;15.00;99.90
16140;DHT22;8175;49.326;12.690;2022-10-28T16:18:42;15.00;99.90
16140;DHT22;8175;49.326;12.690;2022-10-28T16:21:18;15.00;99.90
16140;DHT22;8175;49.326;12.690;2022-10-28T16:23:46;15.00;99.90
16140;DHT22;8175;49.326;12.690;2022-10-28T16:26:13;15.00;99.90
16140;DHT22;8175;49.326;12.690;2022-10-28T16:28:38;15.00;99.90
16140;DHT22;8175;49.326;12.690;2022-10-28T16:31:04;14.90;99.90
16140;DHT22;8175;49.326;12.690;2022-10-28T16:33:34;14.90;99.90
16140;DHT22;8175;49.326;12.690;2022-10-28T16:36:01;14.90;99.90
16140;DHT22;8175;49.326;12.690;2022-10-28T16:38:30;14.90;99.90
16140;DHT22;8175;49.326;12.690;2022-10-28T16:40:57;14.90;99.90
16140;DHT22;8175;49.326;12.690;2022-10-28T16:43:25;14.90;99.90
16140;DHT22;8175;49.326;12.690;2022-10-28T16:45:54;14.90;99.90
16140;DHT22;8175;49.326;12.690;2022-10-28T16:48:23;14.90;99.90
16140;DHT22;8175;49.326;12.690;2022-10-28T16:51:13;14.90;99.90
16140;DHT22;8175;49.326;12.690;2022-10-28T16:53:40;14.80;99.90
16140;DHT22;8175;49.326;12.690;2022-10-28T16:56:14;14.80;99.90
16140;DHT22;8175;49.326;12.690;2022-10-28T16:58:40;14.70;99.90
16140;DHT22;8175;49.326;12.690;2022-10-28T17:01:07;14.60;99.90
16140;DHT22;8175;49.326;12.690;2022-10-28T17:03:33;14.50;99.90
16140;DHT22;8175;49.326;12.690;2022-10-28T17:05:59;14.40;99.90
16140;DHT22;8175;49.326;12.690;2022-10-28T17:08:25;14.40;99.90
16140;DHT22;8175;49.326;12.690;2022-10-28T17:10:50;14.40;99.90
16140;DHT22;8175;49.326;12.690;2022-10-28T17:13:16;14.30;99.90
16140;DHT22;8175;49.326;12.690;2022-10-28T17:15:42;14.30;99.90
16140;DHT22;8175;49.326;12.690;2022-10-28T17:18:10;14.20;99.90
16140;DHT22;8175;49.326;12.690;2022-10-28T17:20:36;14.10;99.90
16140;DHT22;8175;49.326;12.690;2022-10-28T17:23:03;14.10;99.90
16140;DHT22;8175;49.326;12.690;2022-10-28T17:25:30;14.00;99.90
16140;DHT22;8175;49.326;12.690;2022-10-28T17:27:55;13.90;99.90
16140;DHT22;8175;49.326;12.690;2022-10-28T17:30:21;13.90;99.90
16140;DHT22;8175;49.326;12.690;2022-10-28T17:32:51;13.90;99.90
16140;DHT22;8175;49.326;12.690;2022-10-28T17:35:21;13.80;99.90
16140;DHT22;8175;49.326;12.690;2022-10-28T17:37:47;13.80;99.90
16140;DHT22;8175;49.326;12.690;2022-10-28T17:40:14;13.70;99.90
16140;DHT22;8175;49.326;12.690;2022-10-28T17:42:39;13.70;99.90
16140;DHT22;8175;49.326;12.690;2022-10-28T17:45:05;13.70;99.90
16140;DHT22;8175;49.326;12.690;2022-10-28T17:47:32;13.60;99.90
16140;DHT22;8175;49.326;12.690;2022-10-28T17:49:58;13.50;99.90
16140;DHT22;8175;49.326;12.690;2022-10-28T17:52:25;13.30;99.90
16140;DHT22;8175;49.326;12.690;2022-10-28T17:54:51;13.30;99.90
16140;DHT22;8175;49.326;12.690;2022-10-28T17:57:16;13.30;99.90
16140;DHT22;8175;49.326;12.690;2022-10-28T17:59:42;13.30;99.90
16140;DHT22;8175;49.326;12.690;2022-10-28T18:02:10;13.20;99.90
16140;DHT22;8175;49.326;12.690;2022-10-28T18:04:37;13.30;99.90
16140;DHT22;8175;49.326;12.690;2022-10-28T18:07:02;13.20;99.90
16140;DHT22;8175;49.326;12.690;2022-10-28T18:09:28;13.10;99.90
16140;DHT22;8175;49.326;12.690;2022-10-28T18:11:56;13.00;99.90
16140;DHT22;8175;49.326;12.690;2022-10-28T18:14:22;12.80;99.90
16140;DHT22;8175;49.326;12.690;2022-10-28T18:16:48;12.90;99.90
16140;DHT22;8175;49.326;12.690;2022-10-28T18:19:15;12.90;99.90
16140;DHT22;8175;49.326;12.690;2022-10-28T18:21:40;12.90;99.90
16140;DHT22;8175;49.326;12.690;2022-10-28T18:24:07;12.90;99.90
16140;DHT22;8175;49.326;12.690;2022-10-28T18:26:35;13.00;99.90
16140;DHT22;8175;49.326;12.690;2022-10-28T18:29:02;13.00;99.90
16140;DHT22;8175;49.326;12.690;2022-10-28T18:31:30;13.00;99.90
16140;DHT22;8175;49.326;12.690;2022-10-28T18:33:56;13.00;99.90
16140;DHT22;8175;49.326;12.690;2022-10-28T18:36:25;13.00;99.90
16140;DHT22;8175;49.326;12.690;2022-10-28T18:38:51;13.00;99.90